Time;durP1;ratioP1;P1;durP2;ratioP2;P2;SDS_P1;SDS_P2;PMS_P1;PMS_P2;Temp;Humidity;BMP_temperature;BMP_pressure;BME280_temperature;BME280_humidity;BME280_pressure;Samples;Min_cycle;Max_cycle;Signal;HPM_P1;HPM_P2
2021/10/04 00:02:00;;;;;;;;;;;15.70;91.80;;;;;;5051345;28;19928;-73
2021/10/04 00:04:26;;;;;;;;;;;15.60;91.70;;;;;;5052928;28;19920;-71
2021/10/04 00:06:51;;;;;;;;;;;15.60;91.50;;;;;;5056326;28;19917;-71
2021/10/04 00:09:17;;;;;;;;;;;15.60;91.40;;;;;;5060291;28;20368;-71
2021/10/04 00:11:42;;;;;;;;;;;15.60;91.20;;;;;;5059226;28;19924;-71
2021/10/04 00:14:08;;;;;;;;;;;15.50;91.20;;;;;;5061747;28;19913;-71
2021/10/04 00:16:34;;;;;;;;;;;15.50;91.20;;;;;;5059141;28;19966;-71
2021/10/04 00:18:59;;;;;;;;;;;15.50;91.20;;;;;;5055798;28;19960;-71
2021/10/04 00:21:25;;;;;;;;;;;15.50;90.90;;;;;;5057098;28;20295;-71
2021/10/04 00:23:50;;;;;;;;;;;15.40;91.10;;;;;;5060545;28;20267;-71
2021/10/04 00:26:15;;;;;;;;;;;15.40;91.20;;;;;;5059753;28;19924;-71
2021/10/04 00:28:41;;;;;;;;;;;15.40;91.20;;;;;;5060509;28;19915;-71
2021/10/04 00:31:07;;;;;;;;;;;15.40;91.20;;;;;;5057306;28;20490;-72
2021/10/04 00:33:32;;;;;;;;;;;15.40;91.30;;;;;;5076764;22;19950;-73
2021/10/04 00:35:58;;;;;;;;;;;15.40;91.30;;;;;;5067718;28;20239;-74
2021/10/04 00:38:23;;;;;;;;;;;15.30;91.30;;;;;;5068876;28;19939;-74
2021/10/04 00:40:49;;;;;;;;;;;15.30;91.40;;;;;;5069031;28;19913;-73
2021/10/04 00:43:14;;;;;;;;;;;15.30;91.40;;;;;;5072043;28;20022;-74
2021/10/04 00:45:40;;;;;;;;;;;15.30;91.50;;;;;;5090355;28;20370;-74
2021/10/04 00:48:05;;;;;;;;;;;15.30;91.50;;;;;;5090791;28;19920;-74
2021/10/04 00:50:31;;;;;;;;;;;15.30;91.50;;;;;;5071153;28;19919;-74
2021/10/04 00:52:56;;;;;;;;;;;15.30;91.60;;;;;;5088259;28;19931;-74
2021/10/04 00:55:22;;;;;;;;;;;15.30;91.60;;;;;;5090297;28;20007;-74
2021/10/04 00:57:47;;;;;;;;;;;15.30;91.70;;;;;;5089272;28;20011;-74
2021/10/04 01:00:15;;;;;;;;;;;15.30;91.80;;;;;;5089552;28;20331;-74
2021/10/04 01:02:40;;;;;;;;;;;15.20;91.80;;;;;;5087850;28;19985;-74
2021/10/04 01:05:07;;;;;;;;;;;15.10;91.90;;;;;;5090677;28;19990;-74
2021/10/04 01:07:32;;;;;;;;;;;15.10;91.90;;;;;;5085724;28;19912;-74
2021/10/04 01:09:57;;;;;;;;;;;15.10;91.90;;;;;;5069230;28;19953;-74
2021/10/04 01:12:23;;;;;;;;;;;15.10;91.90;;;;;;5089214;28;19920;-74
2021/10/04 01:14:49;;;;;;;;;;;15.10;92.00;;;;;;5088523;28;19920;-74
2021/10/04 01:17:14;;;;;;;;;;;15.10;92.00;;;;;;5088127;28;19989;-74
2021/10/04 01:19:40;;;;;;;;;;;15.00;92.00;;;;;;5071232;28;19920;-74
2021/10/04 01:22:06;;;;;;;;;;;15.00;91.90;;;;;;5085002;28;19920;-74
2021/10/04 01:24:31;;;;;;;;;;;15.00;91.90;;;;;;5088737;28;19916;-74
2021/10/04 01:26:57;;;;;;;;;;;15.00;91.90;;;;;;5089912;28;19969;-74
2021/10/04 01:29:22;;;;;;;;;;;15.00;91.90;;;;;;5070113;28;19947;-74
2021/10/04 01:31:47;;;;;;;;;;;15.00;92.00;;;;;;5070604;28;20394;-75
2021/10/04 01:34:13;;;;;;;;;;;14.90;91.90;;;;;;5070551;28;19916;-75
2021/10/04 01:36:38;;;;;;;;;;;14.90;91.90;;;;;;5089335;28;20354;-74
2021/10/04 01:39:04;;;;;;;;;;;14.90;91.90;;;;;;5088005;28;20303;-74
2021/10/04 01:41:29;;;;;;;;;;;14.90;91.80;;;;;;5087561;28;19916;-74
2021/10/04 01:43:55;;;;;;;;;;;14.90;91.80;;;;;;5088338;28;20001;-74
2021/10/04 01:46:20;;;;;;;;;;;14.80;91.80;;;;;;5071594;28;19916;-74
2021/10/04 01:48:46;;;;;;;;;;;14.80;91.80;;;;;;5088045;28;19915;-74
2021/10/04 01:51:12;;;;;;;;;;;14.80;91.80;;;;;;5068594;28;19920;-74
2021/10/04 01:53:38;;;;;;;;;;;14.80;91.90;;;;;;5068896;28;19912;-74
2021/10/04 01:56:03;;;;;;;;;;;14.80;91.90;;;;;;5087591;28;19916;-74
2021/10/04 01:58:29;;;;;;;;;;;14.70;91.90;;;;;;5087770;28;19938;-75
2021/10/04 02:00:55;;;;;;;;;;;14.70;92.00;;;;;;5067237;28;19916;-75
2021/10/04 02:03:21;;;;;;;;;;;14.70;92.00;;;;;;5069022;28;19916;-74
2021/10/04 02:05:46;;;;;;;;;;;14.70;92.00;;;;;;5084230;28;19912;-74
2021/10/04 02:08:12;;;;;;;;;;;14.70;92.10;;;;;;5089196;28;20660;-74
2021/10/04 02:10:39;;;;;;;;;;;14.70;92.10;;;;;;5069861;28;19912;-74
2021/10/04 02:13:05;;;;;;;;;;;14.70;92.10;;;;;;5085014;28;19927;-74
2021/10/04 02:15:30;;;;;;;;;;;14.70;92.20;;;;;;5069985;28;19916;-74
2021/10/04 02:17:56;;;;;;;;;;;14.70;92.10;;;;;;5070345;28;19920;-74
2021/10/04 02:20:23;;;;;;;;;;;14.70;92.20;;;;;;5068591;28;19931;-74
2021/10/04 02:22:49;;;;;;;;;;;14.70;92.30;;;;;;5070248;28;19912;-74
2021/10/04 02:25:15;;;;;;;;;;;14.70;92.20;;;;;;5088326;28;19912;-74
2021/10/04 02:27:41;;;;;;;;;;;14.70;92.30;;;;;;5087351;28;19912;-74
2021/10/04 02:30:07;;;;;;;;;;;14.70;92.30;;;;;;5088081;28;19908;-74
2021/10/04 02:32:33;;;;;;;;;;;14.60;92.20;;;;;;5066158;28;19920;-74
2021/10/04 02:34:58;;;;;;;;;;;14.70;92.30;;;;;;5086047;28;19920;-74
2021/10/04 02:37:24;;;;;;;;;;;14.70;92.30;;;;;;5070487;28;20262;-74
2021/10/04 02:39:49;;;;;;;;;;;14.60;92.20;;;;;;5086648;28;20370;-74
2021/10/04 02:42:15;;;;;;;;;;;14.60;92.20;;;;;;5069642;28;19916;-74
2021/10/04 02:44:40;;;;;;;;;;;14.60;92.20;;;;;;5085590;28;19970;-74
2021/10/04 02:47:05;;;;;;;;;;;14.60;92.20;;;;;;5068201;28;19916;-74
2021/10/04 02:49:31;;;;;;;;;;;14.60;92.10;;;;;;5087350;28;19919;-74
2021/10/04 02:51:56;;;;;;;;;;;14.50;92.10;;;;;;5069566;28;19912;-74
2021/10/04 02:54:22;;;;;;;;;;;14.60;92.00;;;;;;5088445;28;20289;-74
2021/10/04 02:56:47;;;;;;;;;;;14.50;91.90;;;;;;5087262;28;19920;-74
2021/10/04 02:59:15;;;;;;;;;;;14.50;91.90;;;;;;5068693;28;20278;-74
2021/10/04 03:01:40;;;;;;;;;;;14.50;91.90;;;;;;5084670;28;19924;-74
2021/10/04 03:04:06;;;;;;;;;;;14.50;92.00;;;;;;5068858;28;19912;-74
2021/10/04 03:06:31;;;;;;;;;;;14.50;92.00;;;;;;5069739;28;20343;-74
2021/10/04 03:08:56;;;;;;;;;;;14.50;92.00;;;;;;5087749;28;19912;-74
2021/10/04 03:11:22;;;;;;;;;;;14.50;92.00;;;;;;5086565;28;19965;-74
2021/10/04 03:13:47;;;;;;;;;;;14.50;92.00;;;;;;5087642;28;19961;-74
2021/10/04 03:16:13;;;;;;;;;;;14.50;92.00;;;;;;5087627;28;19916;-74
2021/10/04 03:18:38;;;;;;;;;;;14.50;92.10;;;;;;5070181;28;20053;-74
2021/10/04 03:21:04;;;;;;;;;;;14.50;92.10;;;;;;5066379;28;19920;-74
2021/10/04 03:23:29;;;;;;;;;;;14.50;92.20;;;;;;5088554;28;19912;-74
2021/10/04 03:25:55;;;;;;;;;;;14.50;92.20;;;;;;5087495;28;20394;-74
2021/10/04 03:28:20;;;;;;;;;;;14.50;92.20;;;;;;5086663;28;19916;-74
2021/10/04 03:30:46;;;;;;;;;;;14.40;92.20;;;;;;5086551;28;19912;-74
2021/10/04 03:33:11;;;;;;;;;;;14.50;92.20;;;;;;5089032;28;19916;-74
2021/10/04 03:35:37;;;;;;;;;;;14.40;92.20;;;;;;5091350;28;19923;-74
2021/10/04 03:38:02;;;;;;;;;;;14.40;92.20;;;;;;5092498;28;19912;-74
2021/10/04 03:40:27;;;;;;;;;;;14.40;92.30;;;;;;5088069;28;20303;-74
2021/10/04 03:42:53;;;;;;;;;;;14.40;92.30;;;;;;5088562;28;19934;-74
2021/10/04 03:45:18;;;;;;;;;;;14.40;92.40;;;;;;5092666;28;19919;-74
2021/10/04 03:47:45;;;;;;;;;;;14.40;92.30;;;;;;5091265;28;20222;-74
2021/10/04 03:50:11;;;;;;;;;;;14.40;92.30;;;;;;5073214;28;19942;-74
2021/10/04 03:52:38;;;;;;;;;;;14.30;92.30;;;;;;5089853;28;20339;-74
2021/10/04 03:55:04;;;;;;;;;;;14.30;92.30;;;;;;5070857;28;19963;-74
2021/10/04 03:57:30;;;;;;;;;;;14.30;92.30;;;;;;5089441;28;19912;-74
2021/10/04 03:59:56;;;;;;;;;;;14.20;92.30;;;;;;5072588;28;20264;-74
2021/10/04 04:02:21;;;;;;;;;;;14.20;92.30;;;;;;5089950;28;19955;-74
2021/10/04 04:04:46;;;;;;;;;;;14.20;92.40;;;;;;5091139;28;20002;-74
2021/10/04 04:07:12;;;;;;;;;;;14.20;92.30;;;;;;5089683;28;19944;-75
2021/10/04 04:09:37;;;;;;;;;;;14.30;92.50;;;;;;5090218;28;19927;-75
2021/10/04 04:12:03;;;;;;;;;;;14.30;92.50;;;;;;5067834;28;20374;-75
2021/10/04 04:14:28;;;;;;;;;;;14.20;92.40;;;;;;5090160;28;19922;-75
2021/10/04 04:16:54;;;;;;;;;;;14.20;92.50;;;;;;5091422;28;19912;-73
2021/10/04 04:19:19;;;;;;;;;;;14.20;92.50;;;;;;5075606;28;19912;-73
2021/10/04 04:21:45;;;;;;;;;;;14.20;92.60;;;;;;5093322;28;20348;-73
2021/10/04 04:24:10;;;;;;;;;;;14.20;92.60;;;;;;5078199;28;19918;-72
2021/10/04 04:26:36;;;;;;;;;;;14.20;92.50;;;;;;5088293;28;19916;-73
2021/10/04 04:29:01;;;;;;;;;;;14.20;92.70;;;;;;5088692;28;19916;-76
2021/10/04 04:31:26;;;;;;;;;;;14.20;93.10;;;;;;5086720;28;19923;-73
2021/10/04 04:33:52;;;;;;;;;;;14.50;93.60;;;;;;5073270;28;19916;-74
2021/10/04 04:36:18;;;;;;;;;;;14.60;92.90;;;;;;5088046;28;19916;-71
2021/10/04 04:38:43;;;;;;;;;;;14.60;92.70;;;;;;5089560;28;19937;-77
2021/10/04 04:41:09;;;;;;;;;;;14.50;92.60;;;;;;5083928;28;20414;-76
2021/10/04 04:43:34;;;;;;;;;;;14.40;92.60;;;;;;5089144;28;19920;-75
2021/10/04 04:45:59;;;;;;;;;;;14.30;92.60;;;;;;5086833;28;19916;-75
2021/10/04 04:48:25;;;;;;;;;;;14.20;92.80;;;;;;5087293;28;19915;-75
2021/10/04 04:50:50;;;;;;;;;;;14.30;92.90;;;;;;5085807;28;19919;-75
2021/10/04 04:53:16;;;;;;;;;;;14.30;92.90;;;;;;5087362;28;20024;-74
2021/10/04 04:55:41;;;;;;;;;;;14.20;93.00;;;;;;5088960;28;20443;-75
2021/10/04 04:58:06;;;;;;;;;;;14.20;93.20;;;;;;5068476;28;19962;-75
2021/10/04 05:00:32;;;;;;;;;;;14.10;92.90;;;;;;5089274;28;19987;-75
2021/10/04 05:02:58;;;;;;;;;;;14.10;93.20;;;;;;5070048;28;20141;-82
2021/10/04 05:05:23;;;;;;;;;;;14.10;93.30;;;;;;5083343;28;20294;-73
2021/10/04 05:07:49;;;;;;;;;;;14.10;93.40;;;;;;5088494;28;20437;-74
2021/10/04 05:10:15;;;;;;;;;;;14.10;93.50;;;;;;5089725;28;19916;-74
2021/10/04 05:12:40;;;;;;;;;;;14.10;93.40;;;;;;5087886;28;20007;-74
2021/10/04 05:15:06;;;;;;;;;;;14.00;93.40;;;;;;5068770;28;20519;-75
2021/10/04 05:17:33;;;;;;;;;;;14.10;93.40;;;;;;5069627;28;20270;-75
2021/10/04 05:19:58;;;;;;;;;;;14.10;93.40;;;;;;5087900;28;19953;-74
2021/10/04 05:22:23;;;;;;;;;;;14.00;93.20;;;;;;5069195;28;20014;-74
2021/10/04 05:24:49;;;;;;;;;;;14.10;93.30;;;;;;5087839;28;19931;-74
2021/10/04 05:27:14;;;;;;;;;;;14.10;93.30;;;;;;5088896;28;19938;-74
2021/10/04 05:29:40;;;;;;;;;;;14.10;93.40;;;;;;5071224;28;20427;-74
2021/10/04 05:32:06;;;;;;;;;;;14.10;93.30;;;;;;5068911;28;19926;-74
2021/10/04 05:34:32;;;;;;;;;;;14.10;93.20;;;;;;5089310;28;19916;-75
2021/10/04 05:36:57;;;;;;;;;;;14.10;93.40;;;;;;5089235;28;20236;-75
2021/10/04 05:39:23;;;;;;;;;;;14.10;93.40;;;;;;5070400;28;19935;-75
2021/10/04 05:41:48;;;;;;;;;;;14.20;93.20;;;;;;5089148;28;20416;-75
2021/10/04 05:44:14;;;;;;;;;;;14.20;93.20;;;;;;5086511;28;20383;-74
2021/10/04 05:46:39;;;;;;;;;;;14.20;93.20;;;;;;5070214;28;19916;-74
2021/10/04 05:49:04;;;;;;;;;;;14.20;93.20;;;;;;5085964;28;19912;-75
2021/10/04 05:51:30;;;;;;;;;;;14.20;93.10;;;;;;5086636;28;19913;-72
2021/10/04 05:53:55;;;;;;;;;;;14.10;92.90;;;;;;5068207;28;19928;-74
2021/10/04 05:56:21;;;;;;;;;;;14.10;93.00;;;;;;5086629;28;19908;-74
2021/10/04 05:58:46;;;;;;;;;;;14.10;93.10;;;;;;5081421;28;20278;-76
2021/10/04 06:01:12;;;;;;;;;;;14.10;93.10;;;;;;5069451;28;20357;-75
2021/10/04 06:03:37;;;;;;;;;;;14.10;93.10;;;;;;5087997;28;19977;-74
2021/10/04 06:06:03;;;;;;;;;;;14.10;93.10;;;;;;5087024;28;19920;-73
2021/10/04 06:08:28;;;;;;;;;;;14.10;93.10;;;;;;5084718;28;19918;-71
2021/10/04 06:10:54;;;;;;;;;;;14.10;93.20;;;;;;5086727;28;19922;-72
2021/10/04 06:13:19;;;;;;;;;;;14.10;93.30;;;;;;5069778;28;19919;-72
2021/10/04 06:15:45;;;;;;;;;;;14.10;93.20;;;;;;5088083;28;19916;-73
2021/10/04 06:18:12;;;;;;;;;;;14.10;93.20;;;;;;5088756;28;20390;-73
2021/10/04 06:20:38;;;;;;;;;;;14.10;93.30;;;;;;5088509;28;19918;-71
2021/10/04 06:23:03;;;;;;;;;;;14.10;93.60;;;;;;5075584;28;20306;-72
2021/10/04 06:25:29;;;;;;;;;;;14.20;93.40;;;;;;5086645;28;19916;-71
2021/10/04 06:27:55;;;;;;;;;;;14.20;93.30;;;;;;5088771;28;20382;-71
2021/10/04 06:30:21;;;;;;;;;;;14.20;93.20;;;;;;5087489;28;19916;-68
2021/10/04 06:32:46;;;;;;;;;;;14.20;93.30;;;;;;5085971;28;20378;-74
2021/10/04 06:35:14;;;;;;;;;;;14.30;93.10;;;;;;5105966;22;22337;-75
2021/10/04 06:37:39;;;;;;;;;;;14.30;93.10;;;;;;5107964;28;19919;-76
2021/10/04 06:40:05;;;;;;;;;;;14.30;93.00;;;;;;5105502;27;20215;-74
2021/10/04 06:42:31;;;;;;;;;;;14.40;93.00;;;;;;5105761;28;20001;-75
2021/10/04 06:44:58;;;;;;;;;;;14.40;93.00;;;;;;5104888;27;19996;-76
2021/10/04 06:47:24;;;;;;;;;;;14.50;92.90;;;;;;5108933;28;19919;-75
2021/10/04 06:49:49;;;;;;;;;;;14.50;92.80;;;;;;5106743;27;19919;-75
2021/10/04 06:52:15;;;;;;;;;;;14.50;92.80;;;;;;5105505;28;20385;-74
2021/10/04 06:54:40;;;;;;;;;;;14.50;92.70;;;;;;5106644;28;20274;-74
2021/10/04 06:57:05;;;;;;;;;;;14.60;92.80;;;;;;5106771;28;19912;-74
2021/10/04 06:59:32;;;;;;;;;;;14.60;92.70;;;;;;5106228;28;19912;-76
2021/10/04 07:01:58;;;;;;;;;;;14.60;92.70;;;;;;5104686;27;19912;-76
2021/10/04 07:04:23;;;;;;;;;;;14.60;92.70;;;;;;5107141;28;20271;-75
2021/10/04 07:06:49;;;;;;;;;;;14.70;92.70;;;;;;5105618;28;20380;-75
2021/10/04 07:09:14;;;;;;;;;;;14.70;92.60;;;;;;5087110;28;20339;-75
2021/10/04 07:11:40;;;;;;;;;;;14.70;92.60;;;;;;5107712;28;19912;-76
2021/10/04 07:14:05;;;;;;;;;;;14.80;92.40;;;;;;5106244;28;19965;-77
2021/10/04 07:16:31;;;;;;;;;;;14.80;92.40;;;;;;5106913;28;20289;-77
2021/10/04 07:18:56;;;;;;;;;;;14.80;92.20;;;;;;5106661;28;19916;-75
2021/10/04 07:21:21;;;;;;;;;;;14.80;92.10;;;;;;5106506;28;19916;-77
2021/10/04 07:23:47;;;;;;;;;;;14.80;91.90;;;;;;5106849;28;19922;-76
2021/10/04 07:26:13;;;;;;;;;;;14.80;92.00;;;;;;5105445;28;20022;-79
2021/10/04 07:28:39;;;;;;;;;;;14.80;92.00;;;;;;5105236;28;19927;-77
2021/10/04 07:31:04;;;;;;;;;;;14.80;92.00;;;;;;5103855;28;20590;-76
2021/10/04 07:33:30;;;;;;;;;;;14.80;92.00;;;;;;5106856;28;19926;-74
2021/10/04 07:35:58;;;;;;;;;;;14.90;92.00;;;;;;5105608;28;20269;-78
2021/10/04 07:38:24;;;;;;;;;;;14.90;91.90;;;;;;5107377;28;20366;-75
2021/10/04 07:40:49;;;;;;;;;;;14.90;91.80;;;;;;5107034;28;19930;-76
2021/10/04 07:43:15;;;;;;;;;;;14.90;91.60;;;;;;5105641;28;19916;-77
2021/10/04 07:45:40;;;;;;;;;;;14.90;91.60;;;;;;5105936;28;19950;-76
2021/10/04 07:48:06;;;;;;;;;;;15.00;91.70;;;;;;5107103;28;19916;-76
2021/10/04 07:50:32;;;;;;;;;;;15.00;91.80;;;;;;5106426;28;19919;-76
2021/10/04 07:52:58;;;;;;;;;;;15.00;91.70;;;;;;5104905;28;19939;-76
2021/10/04 07:55:23;;;;;;;;;;;15.10;91.70;;;;;;5088635;28;20366;-76
2021/10/04 07:57:49;;;;;;;;;;;15.20;91.50;;;;;;5107054;28;20312;-76
2021/10/04 08:00:15;;;;;;;;;;;15.30;91.40;;;;;;5087067;28;19916;-73
2021/10/04 08:02:41;;;;;;;;;;;15.30;91.40;;;;;;5105889;28;19918;-77
2021/10/04 08:05:06;;;;;;;;;;;15.40;91.30;;;;;;5109947;28;19973;-76
2021/10/04 08:07:32;;;;;;;;;;;15.40;91.30;;;;;;5106787;28;19912;-76
2021/10/04 08:09:57;;;;;;;;;;;15.40;91.30;;;;;;5107491;28;19916;-76
2021/10/04 08:12:25;;;;;;;;;;;15.50;91.30;;;;;;5106409;28;19955;-76
2021/10/04 08:14:51;;;;;;;;;;;15.50;91.30;;;;;;5108174;28;19908;-76
2021/10/04 08:17:16;;;;;;;;;;;15.60;91.40;;;;;;5104892;28;19915;-77
2021/10/04 08:19:42;;;;;;;;;;;15.60;91.30;;;;;;5108959;28;19916;-78
2021/10/04 08:22:07;;;;;;;;;;;15.70;91.20;;;;;;5090955;28;19916;-76
2021/10/04 08:24:33;;;;;;;;;;;15.70;91.20;;;;;;5110921;27;20010;-75
2021/10/04 08:26:58;;;;;;;;;;;15.70;91.20;;;;;;5110106;28;19919;-74
2021/10/04 08:29:23;;;;;;;;;;;15.70;91.00;;;;;;5110326;28;19938;-74
2021/10/04 08:31:49;;;;;;;;;;;15.70;90.90;;;;;;5108760;28;19919;-74
2021/10/04 08:34:14;;;;;;;;;;;15.70;90.80;;;;;;5107400;27;19923;-75
2021/10/04 08:36:40;;;;;;;;;;;15.80;90.80;;;;;;5109919;28;19922;-75
2021/10/04 08:39:06;;;;;;;;;;;15.80;90.60;;;;;;5108913;28;20041;-75
2021/10/04 08:41:33;;;;;;;;;;;15.80;90.40;;;;;;5110566;28;20049;-75
2021/10/04 08:44:02;;;;;;;;;;;15.80;90.40;;;;;;5110136;28;19912;-76
2021/10/04 08:46:27;;;;;;;;;;;15.90;90.10;;;;;;5092703;28;19915;-76
2021/10/04 08:48:53;;;;;;;;;;;15.90;90.20;;;;;;5110052;28;19911;-76
2021/10/04 08:51:18;;;;;;;;;;;16.00;90.00;;;;;;5108824;28;19912;-76
2021/10/04 08:53:46;;;;;;;;;;;16.00;90.00;;;;;;5109883;28;19926;-76
2021/10/04 08:56:12;;;;;;;;;;;16.00;90.00;;;;;;5111080;28;19916;-79
2021/10/04 08:58:37;;;;;;;;;;;16.00;89.80;;;;;;5109514;28;19912;-77
2021/10/04 09:01:03;;;;;;;;;;;16.10;90.00;;;;;;5108775;28;19943;-78
2021/10/04 09:03:42;;;;;;;;;;;16.10;89.70;;;;;;5107714;27;19966;-77
2021/10/04 09:06:21;;;;;;;;;;;16.10;90.00;;;;;;5108516;28;19923;-77
2021/10/04 09:08:50;;;;;;;;;;;16.20;89.90;;;;;;5110293;28;19907;-78
2021/10/04 09:11:26;;;;;;;;;;;16.20;89.60;;;;;;5111140;27;19957;-78
2021/10/04 09:13:51;;;;;;;;;;;16.30;89.30;;;;;;5093359;28;19915;-77
2021/10/04 09:16:16;;;;;;;;;;;16.40;88.70;;;;;;5110570;28;20235;-77
2021/10/04 09:18:42;;;;;;;;;;;16.40;88.20;;;;;;5108615;28;20002;-78
2021/10/04 09:21:11;;;;;;;;;;;16.40;88.10;;;;;;5106641;28;19971;-78
2021/10/04 09:23:36;;;;;;;;;;;16.50;87.60;;;;;;5107722;28;19924;-79
2021/10/04 09:26:03;;;;;;;;;;;16.50;87.50;;;;;;5106455;28;20002;-77
2021/10/04 09:28:36;;;;;;;;;;;16.50;87.70;;;;;;5111306;28;19961;-79
2021/10/04 09:31:16;;;;;;;;;;;16.60;87.70;;;;;;5109737;28;19951;-80
2021/10/04 09:34:00;;;;;;;;;;;16.70;87.30;;;;;;5106733;28;19922;-78
2021/10/04 09:36:30;;;;;;;;;;;16.70;87.50;;;;;;5109788;28;20294;-78
2021/10/04 09:39:09;;;;;;;;;;;16.80;87.90;;;;;;5110701;28;19908;-76
2021/10/04 09:41:34;;;;;;;;;;;16.80;87.40;;;;;;5108768;28;20652;-77
2021/10/04 09:44:03;;;;;;;;;;;16.90;87.00;;;;;;5092114;28;19912;-78
2021/10/04 09:46:29;;;;;;;;;;;17.00;86.50;;;;;;5110759;28;19919;-76
2021/10/04 09:49:01;;;;;;;;;;;17.10;86.70;;;;;;5108745;28;19912;-77
2021/10/04 09:51:27;;;;;;;;;;;17.10;86.40;;;;;;5105813;28;19931;-79
2021/10/04 09:54:08;;;;;;;;;;;17.10;85.90;;;;;;5110773;28;19920;-77
2021/10/04 09:56:34;;;;;;;;;;;17.10;85.70;;;;;;5105533;28;19992;-76
2021/10/04 09:58:59;;;;;;;;;;;17.20;86.10;;;;;;5109226;27;19993;-76
2021/10/04 10:01:25;;;;;;;;;;;17.20;85.60;;;;;;5110797;27;19916;-74
2021/10/04 10:03:50;;;;;;;;;;;17.30;85.70;;;;;;5108872;28;19912;-74
2021/10/04 10:06:17;;;;;;;;;;;17.30;85.70;;;;;;5108398;28;19922;-73
2021/10/04 10:08:42;;;;;;;;;;;17.30;85.50;;;;;;5108147;28;19926;-74
2021/10/04 10:11:08;;;;;;;;;;;17.40;85.80;;;;;;5106107;28;19912;-78
2021/10/04 10:13:34;;;;;;;;;;;17.50;85.80;;;;;;5106502;27;19915;-75
2021/10/04 10:16:01;;;;;;;;;;;17.50;84.60;;;;;;5087470;28;19915;-76
2021/10/04 10:18:42;;;;;;;;;;;17.50;84.20;;;;;;5107114;28;19928;-76
2021/10/04 10:21:08;;;;;;;;;;;17.40;84.50;;;;;;5108164;28;19920;-76
2021/10/04 10:23:41;;;;;;;;;;;17.40;83.40;;;;;;5108054;28;20002;-76
2021/10/04 10:26:25;;;;;;;;;;;17.40;84.00;;;;;;5108675;28;19915;-76
2021/10/04 10:29:17;;;;;;;;;;;17.40;84.20;;;;;;5107870;28;19919;-76
2021/10/04 10:31:51;;;;;;;;;;;17.40;83.90;;;;;;5089188;28;20289;-75
2021/10/04 10:34:42;;;;;;;;;;;17.50;84.10;;;;;;5108606;28;19919;-77
2021/10/04 10:37:07;;;;;;;;;;;17.50;83.60;;;;;;5078498;28;20327;-76
2021/10/04 10:39:37;;;;;;;;;;;17.50;83.70;;;;;;5110032;28;19912;-78
2021/10/04 10:42:14;;;;;;;;;;;17.50;83.10;;;;;;5106104;28;19912;-74
2021/10/04 10:44:58;;;;;;;;;;;17.50;83.30;;;;;;5106477;28;20162;-75
2021/10/04 10:47:32;;;;;;;;;;;17.50;83.10;;;;;;5089651;28;19920;-76
2021/10/04 10:49:59;;;;;;;;;;;17.50;83.30;;;;;;5107035;28;19927;-75
2021/10/04 10:52:26;;;;;;;;;;;17.60;83.80;;;;;;5105767;27;20679;-74
2021/10/04 10:54:52;;;;;;;;;;;17.60;83.00;;;;;;5106524;28;21871;-74
2021/10/04 10:57:19;;;;;;;;;;;17.70;82.90;;;;;;5109046;28;19950;-74
2021/10/04 10:59:44;;;;;;;;;;;17.70;83.10;;;;;;5106359;28;19916;-75
2021/10/04 11:02:28;;;;;;;;;;;17.80;82.80;;;;;;5086195;28;19926;-73
2021/10/04 11:04:54;;;;;;;;;;;17.90;82.20;;;;;;5106954;28;19908;-71
2021/10/04 11:07:38;;;;;;;;;;;18.00;82.00;;;;;;5099997;28;19926;-74
2021/10/04 11:10:07;;;;;;;;;;;17.90;81.60;;;;;;5102730;27;19999;-75
2021/10/04 11:12:51;;;;;;;;;;;17.90;81.90;;;;;;5107105;28;19920;-75
2021/10/04 11:15:28;;;;;;;;;;;17.90;81.60;;;;;;5090107;28;19943;-76
2021/10/04 11:17:54;;;;;;;;;;;17.90;81.00;;;;;;5108305;28;19920;-75
2021/10/04 11:20:19;;;;;;;;;;;18.00;81.50;;;;;;5086320;28;19920;-74
2021/10/04 11:22:45;;;;;;;;;;;18.10;81.10;;;;;;5101530;28;20022;-74
2021/10/04 11:25:10;;;;;;;;;;;18.20;80.70;;;;;;5089029;28;19976;-77
2021/10/04 11:27:46;;;;;;;;;;;18.30;80.20;;;;;;5108197;28;19908;-76
2021/10/04 11:30:12;;;;;;;;;;;18.30;79.80;;;;;;5104999;28;20358;-78
2021/10/04 11:32:37;;;;;;;;;;;18.30;78.10;;;;;;5106438;28;19969;-78
2021/10/04 11:35:12;;;;;;;;;;;18.30;79.30;;;;;;5106542;28;19962;-78
2021/10/04 11:37:38;;;;;;;;;;;18.30;79.80;;;;;;5106528;28;19916;-76
2021/10/04 11:40:05;;;;;;;;;;;18.40;79.20;;;;;;5108395;28;19908;-74
2021/10/04 11:42:32;;;;;;;;;;;18.40;79.10;;;;;;5107193;28;20309;-76
2021/10/04 11:45:00;;;;;;;;;;;18.50;78.80;;;;;;5108201;28;20622;-77
2021/10/04 11:47:26;;;;;;;;;;;18.50;78.00;;;;;;5090233;28;19923;-77
2021/10/04 11:49:53;;;;;;;;;;;18.50;78.30;;;;;;5105337;28;19920;-75
2021/10/04 11:52:19;;;;;;;;;;;18.60;77.30;;;;;;5105096;28;19922;-76
2021/10/04 11:54:47;;;;;;;;;;;18.60;77.20;;;;;;5110094;28;19912;-79
2021/10/04 11:57:15;;;;;;;;;;;18.50;77.90;;;;;;5108527;28;19911;-75
2021/10/04 11:59:49;;;;;;;;;;;18.60;78.20;;;;;;5110608;28;19916;-76
2021/10/04 12:02:15;;;;;;;;;;;18.70;76.70;;;;;;5110206;28;20019;-75
2021/10/04 12:04:41;;;;;;;;;;;18.70;77.30;;;;;;5090784;28;19974;-78
2021/10/04 12:07:07;;;;;;;;;;;18.70;78.00;;;;;;5109639;27;20370;-79
2021/10/04 12:09:33;;;;;;;;;;;18.90;78.30;;;;;;5110658;27;20640;-75
2021/10/04 12:11:59;;;;;;;;;;;19.00;76.90;;;;;;5108071;28;19920;-78
2021/10/04 12:14:26;;;;;;;;;;;19.00;76.60;;;;;;5109618;28;19926;-76
2021/10/04 12:16:53;;;;;;;;;;;18.90;76.70;;;;;;5085526;28;20434;-76
2021/10/04 12:19:18;;;;;;;;;;;19.00;76.50;;;;;;5091708;28;19916;-75
2021/10/04 12:21:46;;;;;;;;;;;19.00;75.70;;;;;;5089023;28;19999;-74
2021/10/04 12:24:11;;;;;;;;;;;18.90;76.20;;;;;;5107707;28;19915;-73
2021/10/04 12:26:47;;;;;;;;;;;18.90;76.40;;;;;;5108015;28;19911;-73
2021/10/04 12:29:25;;;;;;;;;;;19.00;75.00;;;;;;5111086;28;19916;-73
2021/10/04 12:31:51;;;;;;;;;;;18.90;76.00;;;;;;5108934;28;19920;-75
2021/10/04 12:34:20;;;;;;;;;;;18.90;75.60;;;;;;5110188;27;19923;-74
2021/10/04 12:36:46;;;;;;;;;;;18.90;75.80;;;;;;5079099;22;19932;-79
2021/10/04 12:39:11;;;;;;;;;;;18.90;75.80;;;;;;5059915;28;20369;-82
2021/10/04 12:41:40;;;;;;;;;;;18.90;74.70;;;;;;5061337;28;20290;-74
2021/10/04 12:44:10;;;;;;;;;;;18.90;75.40;;;;;;5063674;28;19912;-83
2021/10/04 12:46:35;;;;;;;;;;;18.90;74.90;;;;;;5040376;28;19909;-75
2021/10/04 12:49:15;;;;;;;;;;;19.00;75.10;;;;;;5041798;28;19994;-76
2021/10/04 12:51:43;;;;;;;;;;;19.00;74.30;;;;;;5040668;28;19925;-76
2021/10/04 12:54:09;;;;;;;;;;;19.00;74.00;;;;;;5043691;28;20015;-74
2021/10/04 12:56:37;;;;;;;;;;;18.90;74.00;;;;;;5041489;28;20377;-75
2021/10/04 12:59:09;;;;;;;;;;;19.00;75.80;;;;;;5039719;28;20375;-79
2021/10/04 13:01:54;;;;;;;;;;;19.10;75.40;;;;;;5040499;28;20008;-78
2021/10/04 13:04:27;;;;;;;;;;;19.20;73.40;;;;;;5039241;28;19939;-77
2021/10/04 13:06:53;;;;;;;;;;;19.20;72.90;;;;;;5040304;28;20374;-77
2021/10/04 13:09:19;;;;;;;;;;;19.30;72.60;;;;;;5038917;28;19917;-76
2021/10/04 13:11:46;;;;;;;;;;;19.30;72.30;;;;;;5038619;28;20391;-76
2021/10/04 13:14:11;;;;;;;;;;;19.30;72.80;;;;;;5040430;28;19920;-76
2021/10/04 13:16:37;;;;;;;;;;;19.30;72.20;;;;;;5039655;28;19913;-77
2021/10/04 13:19:03;;;;;;;;;;;19.20;72.60;;;;;;5039458;28;19917;-75
2021/10/04 13:21:28;;;;;;;;;;;19.20;72.60;;;;;;5041009;28;19919;-75
2021/10/04 13:23:54;;;;;;;;;;;19.20;72.80;;;;;;5041059;28;19916;-75
2021/10/04 13:26:20;;;;;;;;;;;19.20;72.50;;;;;;5039535;28;20256;-84
2021/10/04 13:28:46;;;;;;;;;;;19.10;72.50;;;;;;5045065;28;20619;-84
2021/10/04 13:31:12;;;;;;;;;;;19.10;72.30;;;;;;5042253;28;20433;-73
2021/10/04 13:33:41;;;;;;;;;;;19.10;72.20;;;;;;5046098;28;19921;-75
2021/10/04 13:36:07;;;;;;;;;;;19.00;72.80;;;;;;5039334;28;20003;-75
2021/10/04 13:38:32;;;;;;;;;;;19.00;72.50;;;;;;5039368;28;19999;-76
2021/10/04 13:40:58;;;;;;;;;;;18.90;72.60;;;;;;5060431;28;19970;-78
2021/10/04 13:43:24;;;;;;;;;;;18.90;72.30;;;;;;5038713;28;20268;-79
2021/10/04 13:45:49;;;;;;;;;;;18.90;72.10;;;;;;5040161;28;20371;-79
2021/10/04 13:48:15;;;;;;;;;;;18.90;72.30;;;;;;5046309;28;19913;-84
2021/10/04 13:50:40;;;;;;;;;;;18.90;72.00;;;;;;5037808;28;20395;-76
2021/10/04 13:53:06;;;;;;;;;;;18.90;71.90;;;;;;5038722;28;20363;-76
2021/10/04 13:55:32;;;;;;;;;;;18.90;71.50;;;;;;5038006;28;19932;-77
2021/10/04 13:57:57;;;;;;;;;;;18.90;71.50;;;;;;5039415;28;20027;-74
2021/10/04 14:00:23;;;;;;;;;;;18.90;71.30;;;;;;5043047;28;20071;-74
2021/10/04 14:02:48;;;;;;;;;;;18.80;70.80;;;;;;5038669;28;19939;-74
2021/10/04 14:05:13;;;;;;;;;;;18.80;70.80;;;;;;5038882;28;20411;-77
2021/10/04 14:07:39;;;;;;;;;;;18.70;71.10;;;;;;5039531;28;20413;-75
2021/10/04 14:10:06;;;;;;;;;;;18.70;70.80;;;;;;5039426;28;20364;-77
2021/10/04 14:12:31;;;;;;;;;;;18.70;70.80;;;;;;5038682;28;19912;-75
2021/10/04 14:15:00;;;;;;;;;;;18.70;70.80;;;;;;5044006;28;20019;-76